KIML

Details ICAO KIML
Name IMPERIAL MUNI
Region United States
Timezone America/Denver (UTC-6.0)
Plans Departing 0
Arriving 0
Stats Elevation 3,275 ft / 998 m (AMSL)
Location 40.510812° -101.619956°
Runways 2
Magnetic Variation 6.321° E
Sunrise 2018-05-27 11:22:08 UTC / 2018-05-27 05:22:08 Local
Sunset 2018-05-28 02:08:05 UTC / 2018-05-27 20:08:05 Local
Advertisement - Login to hide

Runways

ID Width Length Bearing (true) Bearing (mag) Surface Threshold Offset Overrun Length
03 243 ft / 74 m 3,057 ft / 932 m 45.43° 39.11° Dirt 0 ft / 0 m 0 ft / 0 m
13 98 ft / 30 m 5,026 ft / 1,532 m 143.80° 137.48° Concrete 0 ft / 0 m 0 ft / 0 m
21 243 ft / 74 m 3,057 ft / 932 m 225.44° 219.12° Dirt 0 ft / 0 m 0 ft / 0 m
31 98 ft / 30 m 5,026 ft / 1,532 m 323.80° 317.48° Concrete 0 ft / 0 m 0 ft / 0 m

Map

Weather


0- 5 10 15 20 25 30 35+ Temperature / ° C

Clouds and Precipitation
Forecast for 2018-05-27 12:00 UTC. Updated 43 minutes ago

Ground ~20,000 ft ~40,000 ft Winds

METAR

KIML 271153Z AUTO 18013G23KT 10SM CLR 21/15 A2984 RMK AO2 SLP065 T02110150 10228 20206 53005

TAF

Not found

Frequencies

Recorded 124.17 MHz ASOS
Unicom 122.80 MHz CTAF/UNICOM
Warning: Do not use this data for real-world aviation or navigation. No guarantee of current accuracy is given.